Airfield :
LOGIN :

Register | Disclaimer

   EN    FR    IT 

 










Legend :    VFR   Marginal VFR   IFR   Intensive IFR   Very Intensive IFR
Visi :
Ceiling :
>= 8 km
>= 3000ft
5 to 8 km
1000 to 3000 ft
1500m to 5 km
500 to 1000 ft
800 to 1500m
200 to 500 ft
< 800m
< 200 ft
Symbols :   Thunderstorms  Fog  Heavy snow  Heavy precipitations  Wind > 20 kt
SIGMETs :     Misc.  Thunderstorms  Icing  Turbulence  Mountain Waves  Volcanic Ashes






- Airport Elevation : 353 ft
- IATA code : LIN


LIML - Milano Linate

CURRENT METAR :
  • 271450Z 17004KT 9999 FEW040 BKN070 23/13 Q1017 NOSIG

EXPIRED METARs :
  • 271420Z 18004KT 9999 FEW030 SCT060 23/14 Q1017 NOSIG
  • 271350Z VRB01KT 9999 FEW030 SCT060 24/13 Q1017 NOSIG
  • 271320Z 03004KT 310V100 9999 FEW030 SCT060 24/12 Q1017 NOSIG
  • 271250Z 34004KT 270V040 9999 FEW030 SCT060 25/13 Q1017 NOSIG
  • 271220Z VRB02KT 9999 SCT030 BKN090 24/15 Q1018 NOSIG
  • 271150Z 03003KT 310V110 9999 FEW030 SCT090 24/14 Q1018 NOSIG
  • 271120Z 14003KT 090V180 9999 SCT090 23/13 Q1018 NOSIG
  • 271050Z 04003KT 320V080 9999 FEW030 SCT090 23/15 Q1018 NOSIG
  • 271020Z VRB02KT 9999 FEW030 BKN050 22/16 Q1019 NOSIG

TAF TAF LIML
Valid from the 27 at 12:00 until the 28 at 12:00 UTC


271100Z 2712/2812 VRB05KT 9999 BKN050
TEMPO 2712/2715 SHRA
TEMPO 2719/2803 4000 TSRA
TEMPO 2809/2812 4000 TSRA



MET'MAP, your aeronautical weather chart ! - Copyright ORBIFLY December 2007 - Disclaimer

ORBIFLY MET'MAP TEAM :

Programming & Development : Alexandra Zaïnal
Original concept : Baudouin d'Aumeries
Technical & hardware support : Manuel Goepfert
Assistance : Marc-Olivier Méhu




SOURCES & CREDITS :

   NOAA